sensor_id;sensor_type;location;lat;lon;timestamp;temperature;humidity
56512;DHT22;42408;53.238;5.686;2022-10-04T00:01:21;13.20;99.90
56512;DHT22;42408;53.238;5.686;2022-10-04T00:03:51;13.30;99.90
56512;DHT22;42408;53.238;5.686;2022-10-04T00:06:20;13.30;99.90
56512;DHT22;42408;53.238;5.686;2022-10-04T00:08:49;13.30;99.90
56512;DHT22;42408;53.238;5.686;2022-10-04T00:11:34;13.30;99.90
56512;DHT22;42408;53.238;5.686;2022-10-04T00:14:06;13.20;99.90
56512;DHT22;42408;53.238;5.686;2022-10-04T00:16:36;13.30;99.90
56512;DHT22;42408;53.238;5.686;2022-10-04T00:24:31;13.20;99.90
56512;DHT22;42408;53.238;5.686;2022-10-04T00:27:20;13.30;99.90
56512;DHT22;42408;53.238;5.686;2022-10-04T00:30:21;13.20;99.90
56512;DHT22;42408;53.238;5.686;2022-10-04T00:33:02;13.20;99.90
56512;DHT22;42408;53.238;5.686;2022-10-04T00:40:39;13.30;99.90
56512;DHT22;42408;53.238;5.686;2022-10-04T00:43:23;13.20;99.90
56512;DHT22;42408;53.238;5.686;2022-10-04T00:46:20;13.20;99.90
56512;DHT22;42408;53.238;5.686;2022-10-04T00:48:53;13.20;99.90
56512;DHT22;42408;53.238;5.686;2022-10-04T00:51:34;13.20;99.90
56512;DHT22;42408;53.238;5.686;2022-10-04T00:54:28;13.30;99.90
56512;DHT22;42408;53.238;5.686;2022-10-04T00:57:14;13.30;99.90
56512;DHT22;42408;53.238;5.686;2022-10-04T01:02:25;13.20;99.90
56512;DHT22;42408;53.238;5.686;2022-10-04T01:07:43;13.20;99.90
56512;DHT22;42408;53.238;5.686;2022-10-04T01:10:14;13.20;99.90
56512;DHT22;42408;53.238;5.686;2022-10-04T01:12:55;13.10;99.90
56512;DHT22;42408;53.238;5.686;2022-10-04T01:15:58;13.10;99.90
56512;DHT22;42408;53.238;5.686;2022-10-04T01:26:04;13.10;99.90
56512;DHT22;42408;53.238;5.686;2022-10-04T01:28:31;13.00;99.90
56512;DHT22;42408;53.238;5.686;2022-10-04T01:30:57;13.00;99.90
56512;DHT22;42408;53.238;5.686;2022-10-04T01:33:23;13.00;99.90
56512;DHT22;42408;53.238;5.686;2022-10-04T01:35:49;13.00;99.90
56512;DHT22;42408;53.238;5.686;2022-10-04T01:38:15;13.00;99.90
56512;DHT22;42408;53.238;5.686;2022-10-04T01:40:53;13.00;99.90
56512;DHT22;42408;53.238;5.686;2022-10-04T01:43:25;13.00;99.90
56512;DHT22;42408;53.238;5.686;2022-10-04T01:45:59;12.90;99.90
56512;DHT22;42408;53.238;5.686;2022-10-04T01:48:31;12.90;99.90
56512;DHT22;42408;53.238;5.686;2022-10-04T01:54:18;12.90;99.90
56512;DHT22;42408;53.238;5.686;2022-10-04T01:56:58;12.90;99.90
56512;DHT22;42408;53.238;5.686;2022-10-04T02:05:27;12.80;99.90
56512;DHT22;42408;53.238;5.686;2022-10-04T02:07:55;12.70;99.90
56512;DHT22;42408;53.238;5.686;2022-10-04T02:10:21;12.70;99.90
56512;DHT22;42408;53.238;5.686;2022-10-04T02:12:51;12.70;99.90
56512;DHT22;42408;53.238;5.686;2022-10-04T02:15:20;12.70;99.90
56512;DHT22;42408;53.238;5.686;2022-10-04T02:17:47;12.60;99.90
56512;DHT22;42408;53.238;5.686;2022-10-04T02:20:20;12.60;99.90
56512;DHT22;42408;53.238;5.686;2022-10-04T02:22:50;12.50;99.90
56512;DHT22;42408;53.238;5.686;2022-10-04T02:25:19;12.50;99.90
56512;DHT22;42408;53.238;5.686;2022-10-04T02:27:45;12.40;99.90
56512;DHT22;42408;53.238;5.686;2022-10-04T02:30:12;12.50;99.90
56512;DHT22;42408;53.238;5.686;2022-10-04T02:32:40;12.40;99.90
56512;DHT22;42408;53.238;5.686;2022-10-04T02:35:45;12.30;99.90
56512;DHT22;42408;53.238;5.686;2022-10-04T02:40:49;12.20;99.90
56512;DHT22;42408;53.238;5.686;2022-10-04T02:43:38;12.20;99.90
56512;DHT22;42408;53.238;5.686;2022-10-04T02:46:13;12.10;99.90
56512;DHT22;42408;53.238;5.686;2022-10-04T02:48:54;12.00;99.90
56512;DHT22;42408;53.238;5.686;2022-10-04T02:51:25;12.00;99.90
56512;DHT22;42408;53.238;5.686;2022-10-04T02:56:25;11.90;99.90
56512;DHT22;42408;53.238;5.686;2022-10-04T02:58:52;11.90;99.90
56512;DHT22;42408;53.238;5.686;2022-10-04T03:01:39;11.80;99.90
56512;DHT22;42408;53.238;5.686;2022-10-04T03:04:10;11.80;99.90
56512;DHT22;42408;53.238;5.686;2022-10-04T03:06:40;11.80;99.90
56512;DHT22;42408;53.238;5.686;2022-10-04T03:09:07;11.80;99.90
56512;DHT22;42408;53.238;5.686;2022-10-04T03:11:35;11.80;99.90
56512;DHT22;42408;53.238;5.686;2022-10-04T03:14:06;11.80;99.90
56512;DHT22;42408;53.238;5.686;2022-10-04T03:16:35;11.80;99.90
56512;DHT22;42408;53.238;5.686;2022-10-04T03:19:02;11.70;99.90
56512;DHT22;42408;53.238;5.686;2022-10-04T03:21:31;11.80;99.90
56512;DHT22;42408;53.238;5.686;2022-10-04T03:23:58;11.70;99.90
56512;DHT22;42408;53.238;5.686;2022-10-04T03:26:35;11.70;99.90
56512;DHT22;42408;53.238;5.686;2022-10-04T03:29:04;11.70;99.90
56512;DHT22;42408;53.238;5.686;2022-10-04T03:31:35;11.70;99.90
56512;DHT22;42408;53.238;5.686;2022-10-04T03:34:01;11.60;99.90
56512;DHT22;42408;53.238;5.686;2022-10-04T03:36:27;11.70;99.90
56512;DHT22;42408;53.238;5.686;2022-10-04T03:38:54;11.90;99.90
56512;DHT22;42408;53.238;5.686;2022-10-04T03:41:22;11.80;99.90
56512;DHT22;42408;53.238;5.686;2022-10-04T03:43:50;11.70;99.90
56512;DHT22;42408;53.238;5.686;2022-10-04T03:46:18;11.80;99.90
56512;DHT22;42408;53.238;5.686;2022-10-04T03:48:49;11.70;99.90
56512;DHT22;42408;53.238;5.686;2022-10-04T03:51:18;11.80;99.90
56512;DHT22;42408;53.238;5.686;2022-10-04T03:53:54;11.60;99.90
56512;DHT22;42408;53.238;5.686;2022-10-04T03:56:25;11.60;99.90
56512;DHT22;42408;53.238;5.686;2022-10-04T03:58:52;11.60;99.90
56512;DHT22;42408;53.238;5.686;2022-10-04T04:12:45;11.50;99.90
56512;DHT22;42408;53.238;5.686;2022-10-04T04:15:14;11.40;99.90
56512;DHT22;42408;53.238;5.686;2022-10-04T04:17:50;11.40;99.90
56512;DHT22;42408;53.238;5.686;2022-10-04T04:20:38;11.50;99.90
56512;DHT22;42408;53.238;5.686;2022-10-04T04:25:43;11.30;99.90
56512;DHT22;42408;53.238;5.686;2022-10-04T04:28:34;11.20;99.90
56512;DHT22;42408;53.238;5.686;2022-10-04T04:31:30;11.30;99.90
56512;DHT22;42408;53.238;5.686;2022-10-04T04:36:19;11.40;99.90
56512;DHT22;42408;53.238;5.686;2022-10-04T04:38:45;11.40;99.90
56512;DHT22;42408;53.238;5.686;2022-10-04T04:41:32;11.30;99.90
56512;DHT22;42408;53.238;5.686;2022-10-04T04:44:02;11.40;99.90
56512;DHT22;42408;53.238;5.686;2022-10-04T04:46:28;11.30;99.90
56512;DHT22;42408;53.238;5.686;2022-10-04T04:49:01;11.20;99.90
56512;DHT22;42408;53.238;5.686;2022-10-04T04:51:27;11.20;99.90
56512;DHT22;42408;53.238;5.686;2022-10-04T04:53:54;11.20;99.90
56512;DHT22;42408;53.238;5.686;2022-10-04T04:56:25;11.10;99.90
56512;DHT22;42408;53.238;5.686;2022-10-04T04:58:54;11.10;99.90
56512;DHT22;42408;53.238;5.686;2022-10-04T05:04:14;11.10;99.90
56512;DHT22;42408;53.238;5.686;2022-10-04T05:06:59;11.10;99.90
56512;DHT22;42408;53.238;5.686;2022-10-04T05:09:35;11.10;99.90
56512;DHT22;42408;53.238;5.686;2022-10-04T05:12:19;11.10;99.90
56512;DHT22;42408;53.238;5.686;2022-10-04T05:14:51;11.10;99.90
56512;DHT22;42408;53.238;5.686;2022-10-04T05:17:30;11.10;99.90
56512;DHT22;42408;53.238;5.686;2022-10-04T05:19:59;11.10;99.90
56512;DHT22;42408;53.238;5.686;2022-10-04T05:22:26;11.10;99.90
56512;DHT22;42408;53.238;5.686;2022-10-04T05:25:08;11.10;99.90
56512;DHT22;42408;53.238;5.686;2022-10-04T05:27:39;11.20;99.90
56512;DHT22;42408;53.238;5.686;2022-10-04T05:33:10;11.10;99.90
56512;DHT22;42408;53.238;5.686;2022-10-04T05:44:34;11.10;99.90
56512;DHT22;42408;53.238;5.686;2022-10-04T05:47:00;11.10;99.90
56512;DHT22;42408;53.238;5.686;2022-10-04T05:49:39;11.10;99.90
56512;DHT22;42408;53.238;5.686;2022-10-04T05:52:34;11.10;99.90
56512;DHT22;42408;53.238;5.686;2022-10-04T05:55:27;11.10;99.90
56512;DHT22;42408;53.238;5.686;2022-10-04T05:58:06;11.00;99.90
56512;DHT22;42408;53.238;5.686;2022-10-04T06:03:58;11.00;99.90
56512;DHT22;42408;53.238;5.686;2022-10-04T06:06:48;11.00;99.90
56512;DHT22;42408;53.238;5.686;2022-10-04T06:15:01;11.00;99.90
56512;DHT22;42408;53.238;5.686;2022-10-04T06:17:55;11.00;99.90
56512;DHT22;42408;53.238;5.686;2022-10-04T06:23:29;11.00;99.90
56512;DHT22;42408;53.238;5.686;2022-10-04T06:26:10;11.00;99.90
56512;DHT22;42408;53.238;5.686;2022-10-04T06:28:47;10.90;99.90
56512;DHT22;42408;53.238;5.686;2022-10-04T06:50:05;11.00;99.90
56512;DHT22;42408;53.238;5.686;2022-10-04T06:55:44;11.20;99.90
56512;DHT22;42408;53.238;5.686;2022-10-04T07:03:52;11.40;99.90
56512;DHT22;42408;53.238;5.686;2022-10-04T07:06:28;11.50;99.90
56512;DHT22;42408;53.238;5.686;2022-10-04T07:08:56;11.60;99.90
56512;DHT22;42408;53.238;5.686;2022-10-04T07:11:43;11.50;99.90
56512;DHT22;42408;53.238;5.686;2022-10-04T07:14:15;11.50;99.90
56512;DHT22;42408;53.238;5.686;2022-10-04T07:16:55;11.50;99.90
56512;DHT22;42408;53.238;5.686;2022-10-04T07:22:41;11.70;99.90
56512;DHT22;42408;53.238;5.686;2022-10-04T07:24:50;11.60;99.90
56512;DHT22;42408;53.238;5.686;2022-10-04T07:27:52;11.70;99.90
56512;DHT22;42408;53.238;5.686;2022-10-04T07:33:35;11.80;99.90
56512;DHT22;42408;53.238;5.686;2022-10-04T07:36:11;11.90;99.90
56512;DHT22;42408;53.238;5.686;2022-10-04T07:38:47;11.80;99.90
56512;DHT22;42408;53.238;5.686;2022-10-04T07:41:41;11.80;99.90
56512;DHT22;42408;53.238;5.686;2022-10-04T07:44:16;12.00;99.90
56512;DHT22;42408;53.238;5.686;2022-10-04T07:46:52;12.10;99.90
56512;DHT22;42408;53.238;5.686;2022-10-04T07:49:21;12.10;99.90
56512;DHT22;42408;53.238;5.686;2022-10-04T07:55:26;12.50;99.90
56512;DHT22;42408;53.238;5.686;2022-10-04T08:00:22;13.10;99.90
56512;DHT22;42408;53.238;5.686;2022-10-04T08:06:13;13.50;99.90
56512;DHT22;42408;53.238;5.686;2022-10-04T08:12:16;13.70;99.90
56512;DHT22;42408;53.238;5.686;2022-10-04T08:14:55;13.80;99.90
56512;DHT22;42408;53.238;5.686;2022-10-04T08:21:00;14.30;99.90
56512;DHT22;42408;53.238;5.686;2022-10-04T08:35:22;15.00;99.90
56512;DHT22;42408;53.238;5.686;2022-10-04T08:46:29;15.60;99.90
56512;DHT22;42408;53.238;5.686;2022-10-04T09:04:14;16.30;99.90
56512;DHT22;42408;53.238;5.686;2022-10-04T09:09:29;16.50;99.90
56512;DHT22;42408;53.238;5.686;2022-10-04T09:14:42;16.70;99.90
56512;DHT22;42408;53.238;5.686;2022-10-04T09:17:19;16.70;99.90
56512;DHT22;42408;53.238;5.686;2022-10-04T09:22:54;16.80;99.90
56512;DHT22;42408;53.238;5.686;2022-10-04T09:30:52;17.10;99.90
56512;DHT22;42408;53.238;5.686;2022-10-04T09:48:06;16.80;99.90
56512;DHT22;42408;53.238;5.686;2022-10-04T10:10:48;17.50;99.90
56512;DHT22;42408;53.238;5.686;2022-10-04T10:13:40;17.70;99.90
56512;DHT22;42408;53.238;5.686;2022-10-04T10:25:25;17.90;99.90
56512;DHT22;42408;53.238;5.686;2022-10-04T10:28:05;18.00;99.90
56512;DHT22;42408;53.238;5.686;2022-10-04T10:39:37;17.80;99.90
56512;DHT22;42408;53.238;5.686;2022-10-04T10:51:15;17.50;99.90
56512;DHT22;42408;53.238;5.686;2022-10-04T10:53:59;17.30;99.90
56512;DHT22;42408;53.238;5.686;2022-10-04T11:16:38;17.30;99.90
56512;DHT22;42408;53.238;5.686;2022-10-04T11:20:04;17.50;99.90
56512;DHT22;42408;53.238;5.686;2022-10-04T11:28:29;17.70;99.90
56512;DHT22;42408;53.238;5.686;2022-10-04T11:36:31;17.60;99.90
56512;DHT22;42408;53.238;5.686;2022-10-04T11:41:58;17.50;99.90
56512;DHT22;42408;53.238;5.686;2022-10-04T11:49:46;17.50;99.90
56512;DHT22;42408;53.238;5.686;2022-10-04T12:00:50;17.60;99.90
56512;DHT22;42408;53.238;5.686;2022-10-04T12:32:18;17.70;99.90
56512;DHT22;42408;53.238;5.686;2022-10-04T12:35:22;17.60;99.90
56512;DHT22;42408;53.238;5.686;2022-10-04T12:52:20;18.00;99.90
56512;DHT22;42408;53.238;5.686;2022-10-04T12:57:52;18.10;99.90
56512;DHT22;42408;53.238;5.686;2022-10-04T13:00:23;18.20;99.90
56512;DHT22;42408;53.238;5.686;2022-10-04T13:14:07;18.30;99.90
56512;DHT22;42408;53.238;5.686;2022-10-04T13:19:36;18.10;99.90
56512;DHT22;42408;53.238;5.686;2022-10-04T13:25:00;18.10;99.90
56512;DHT22;42408;53.238;5.686;2022-10-04T13:27:50;18.10;99.90
56512;DHT22;42408;53.238;5.686;2022-10-04T13:30:22;18.10;99.90
56512;DHT22;42408;53.238;5.686;2022-10-04T13:33:12;18.00;99.90
56512;DHT22;42408;53.238;5.686;2022-10-04T13:36:41;18.00;99.90
56512;DHT22;42408;53.238;5.686;2022-10-04T13:39:20;18.00;99.90
56512;DHT22;42408;53.238;5.686;2022-10-04T13:42:03;17.90;99.90
56512;DHT22;42408;53.238;5.686;2022-10-04T13:45:13;17.90;99.90
56512;DHT22;42408;53.238;5.686;2022-10-04T13:51:27;17.90;99.90
56512;DHT22;42408;53.238;5.686;2022-10-04T13:54:09;17.90;99.90
56512;DHT22;42408;53.238;5.686;2022-10-04T14:10:22;17.80;99.90
56512;DHT22;42408;53.238;5.686;2022-10-04T14:37:08;17.60;99.90
56512;DHT22;42408;53.238;5.686;2022-10-04T14:40:24;17.60;99.90
56512;DHT22;42408;53.238;5.686;2022-10-04T14:43:30;17.60;99.90
56512;DHT22;42408;53.238;5.686;2022-10-04T14:55:25;17.40;99.90
56512;DHT22;42408;53.238;5.686;2022-10-04T14:58:15;17.30;99.90
56512;DHT22;42408;53.238;5.686;2022-10-04T15:01:23;17.20;99.90
56512;DHT22;42408;53.238;5.686;2022-10-04T15:06:57;17.00;99.90
56512;DHT22;42408;53.238;5.686;2022-10-04T15:17:34;17.10;99.90
56512;DHT22;42408;53.238;5.686;2022-10-04T15:21:02;17.10;99.90
56512;DHT22;42408;53.238;5.686;2022-10-04T15:59:02;16.70;99.90
56512;DHT22;42408;53.238;5.686;2022-10-04T16:04:29;16.60;99.90
56512;DHT22;42408;53.238;5.686;2022-10-04T16:09:44;16.50;99.90
56512;DHT22;42408;53.238;5.686;2022-10-04T16:15:13;16.50;99.90
56512;DHT22;42408;53.238;5.686;2022-10-04T16:20:35;16.50;99.90
56512;DHT22;42408;53.238;5.686;2022-10-04T16:25:51;16.40;99.90
56512;DHT22;42408;53.238;5.686;2022-10-04T16:34:08;16.30;99.90
56512;DHT22;42408;53.238;5.686;2022-10-04T16:36:48;16.20;99.90
56512;DHT22;42408;53.238;5.686;2022-10-04T16:42:17;16.30;99.90
56512;DHT22;42408;53.238;5.686;2022-10-04T16:44:51;16.20;99.90
56512;DHT22;42408;53.238;5.686;2022-10-04T16:47:47;16.40;99.90
56512;DHT22;42408;53.238;5.686;2022-10-04T16:56:13;16.20;99.90
56512;DHT22;42408;53.238;5.686;2022-10-04T16:58:54;16.20;99.90
56512;DHT22;42408;53.238;5.686;2022-10-04T17:09:32;16.10;99.90
56512;DHT22;42408;53.238;5.686;2022-10-04T17:12:27;16.10;99.90
56512;DHT22;42408;53.238;5.686;2022-10-04T17:23:38;15.90;99.90
56512;DHT22;42408;53.238;5.686;2022-10-04T17:29:01;15.90;99.90
56512;DHT22;42408;53.238;5.686;2022-10-04T17:36:49;15.80;99.90
56512;DHT22;42408;53.238;5.686;2022-10-04T17:39:40;15.80;99.90
56512;DHT22;42408;53.238;5.686;2022-10-04T17:42:12;15.80;99.90
56512;DHT22;42408;53.238;5.686;2022-10-04T17:49:45;15.90;99.90
56512;DHT22;42408;53.238;5.686;2022-10-04T17:52:43;15.90;99.90
56512;DHT22;42408;53.238;5.686;2022-10-04T17:55:46;15.80;99.90
56512;DHT22;42408;53.238;5.686;2022-10-04T17:58:16;15.90;99.90
56512;DHT22;42408;53.238;5.686;2022-10-04T18:01:05;15.90;99.90
56512;DHT22;42408;53.238;5.686;2022-10-04T18:03:51;15.90;99.90
56512;DHT22;42408;53.238;5.686;2022-10-04T18:06:30;16.00;99.90
56512;DHT22;42408;53.238;5.686;2022-10-04T18:09:02;16.00;99.90
56512;DHT22;42408;53.238;5.686;2022-10-04T18:11:42;15.90;99.90
56512;DHT22;42408;53.238;5.686;2022-10-04T18:17:05;15.90;99.90
56512;DHT22;42408;53.238;5.686;2022-10-04T18:19:41;15.90;99.90
56512;DHT22;42408;53.238;5.686;2022-10-04T18:24:37;16.00;99.90
56512;DHT22;42408;53.238;5.686;2022-10-04T18:27:23;16.00;99.90
56512;DHT22;42408;53.238;5.686;2022-10-04T18:34:57;16.00;99.90
56512;DHT22;42408;53.238;5.686;2022-10-04T18:37:36;16.10;99.90
56512;DHT22;42408;53.238;5.686;2022-10-04T18:40:21;16.10;99.90
56512;DHT22;42408;53.238;5.686;2022-10-04T18:45:30;16.10;99.90
56512;DHT22;42408;53.238;5.686;2022-10-04T18:47:59;16.10;99.90
56512;DHT22;42408;53.238;5.686;2022-10-04T18:50:37;16.00;99.90
56512;DHT22;42408;53.238;5.686;2022-10-04T18:56:11;16.00;99.90
56512;DHT22;42408;53.238;5.686;2022-10-04T19:05:17;15.90;99.90
56512;DHT22;42408;53.238;5.686;2022-10-04T19:10:48;15.90;99.90
56512;DHT22;42408;53.238;5.686;2022-10-04T19:13:28;16.00;99.90
56512;DHT22;42408;53.238;5.686;2022-10-04T19:18:55;16.00;99.90
56512;DHT22;42408;53.238;5.686;2022-10-04T19:26:39;16.10;99.90
56512;DHT22;42408;53.238;5.686;2022-10-04T19:34:42;16.20;99.90
56512;DHT22;42408;53.238;5.686;2022-10-04T19:48:48;16.20;99.90
56512;DHT22;42408;53.238;5.686;2022-10-04T19:51:38;16.10;99.90
56512;DHT22;42408;53.238;5.686;2022-10-04T19:54:10;16.10;99.90
56512;DHT22;42408;53.238;5.686;2022-10-04T19:56:49;16.20;99.90
56512;DHT22;42408;53.238;5.686;2022-10-04T19:59:17;16.20;99.90
56512;DHT22;42408;53.238;5.686;2022-10-04T20:01:44;16.20;99.90
56512;DHT22;42408;53.238;5.686;2022-10-04T20:04:13;16.10;99.90
56512;DHT22;42408;53.238;5.686;2022-10-04T20:06:59;16.10;99.90
56512;DHT22;42408;53.238;5.686;2022-10-04T20:11:58;16.10;99.90
56512;DHT22;42408;53.238;5.686;2022-10-04T20:22:24;16.10;99.90
56512;DHT22;42408;53.238;5.686;2022-10-04T20:27:05;16.00;99.90
56512;DHT22;42408;53.238;5.686;2022-10-04T20:35:12;16.00;99.90
56512;DHT22;42408;53.238;5.686;2022-10-04T20:45:52;16.10;99.90
56512;DHT22;42408;53.238;5.686;2022-10-04T20:48:26;16.10;99.90
56512;DHT22;42408;53.238;5.686;2022-10-04T20:50:52;16.00;99.90
56512;DHT22;42408;53.238;5.686;2022-10-04T20:53:20;16.00;99.90
56512;DHT22;42408;53.238;5.686;2022-10-04T20:55:47;16.10;99.90
56512;DHT22;42408;53.238;5.686;2022-10-04T20:58:31;16.10;99.90
56512;DHT22;42408;53.238;5.686;2022-10-04T21:01:04;16.00;99.90
56512;DHT22;42408;53.238;5.686;2022-10-04T21:03:50;16.00;99.90
56512;DHT22;42408;53.238;5.686;2022-10-04T21:06:16;16.00;99.90
56512;DHT22;42408;53.238;5.686;2022-10-04T21:08:41;16.00;99.90
56512;DHT22;42408;53.238;5.686;2022-10-04T21:11:15;16.00;99.90
56512;DHT22;42408;53.238;5.686;2022-10-04T21:13:48;16.00;99.90
56512;DHT22;42408;53.238;5.686;2022-10-04T21:16:43;16.00;99.90
56512;DHT22;42408;53.238;5.686;2022-10-04T21:22:42;15.90;99.90
56512;DHT22;42408;53.238;5.686;2022-10-04T21:29:56;15.90;99.90
56512;DHT22;42408;53.238;5.686;2022-10-04T21:32:23;15.80;99.90
56512;DHT22;42408;53.238;5.686;2022-10-04T21:34:49;15.80;99.90
56512;DHT22;42408;53.238;5.686;2022-10-04T21:37:16;15.70;99.90
56512;DHT22;42408;53.238;5.686;2022-10-04T21:39:41;15.80;99.90
56512;DHT22;42408;53.238;5.686;2022-10-04T21:42:07;15.70;99.90
56512;DHT22;42408;53.238;5.686;2022-10-04T21:44:33;15.80;99.90
56512;DHT22;42408;53.238;5.686;2022-10-04T21:46:58;15.70;99.90
56512;DHT22;42408;53.238;5.686;2022-10-04T21:49:24;15.70;99.90
56512;DHT22;42408;53.238;5.686;2022-10-04T21:51:50;15.70;99.90
56512;DHT22;42408;53.238;5.686;2022-10-04T21:54:15;15.70;99.90
56512;DHT22;42408;53.238;5.686;2022-10-04T21:56:41;15.80;99.90
56512;DHT22;42408;53.238;5.686;2022-10-04T21:59:07;15.80;99.90
56512;DHT22;42408;53.238;5.686;2022-10-04T22:01:33;15.70;99.90
56512;DHT22;42408;53.238;5.686;2022-10-04T22:03:58;15.70;99.90
56512;DHT22;42408;53.238;5.686;2022-10-04T22:06:24;15.60;99.90
56512;DHT22;42408;53.238;5.686;2022-10-04T22:08:50;15.70;99.90
56512;DHT22;42408;53.238;5.686;2022-10-04T22:11:16;15.70;99.90
56512;DHT22;42408;53.238;5.686;2022-10-04T22:13:41;15.70;99.90
56512;DHT22;42408;53.238;5.686;2022-10-04T22:16:07;15.70;99.90
56512;DHT22;42408;53.238;5.686;2022-10-04T22:18:33;15.70;99.90
56512;DHT22;42408;53.238;5.686;2022-10-04T22:20:59;15.70;99.90
56512;DHT22;42408;53.238;5.686;2022-10-04T22:23:26;15.70;99.90
56512;DHT22;42408;53.238;5.686;2022-10-04T22:25:53;15.70;99.90
56512;DHT22;42408;53.238;5.686;2022-10-04T22:28:25;15.70;99.90
56512;DHT22;42408;53.238;5.686;2022-10-04T22:30:51;15.70;99.90
56512;DHT22;42408;53.238;5.686;2022-10-04T22:38:55;15.70;99.90
56512;DHT22;42408;53.238;5.686;2022-10-04T22:41:24;15.70;99.90
56512;DHT22;42408;53.238;5.686;2022-10-04T22:43:50;15.70;99.90
56512;DHT22;42408;53.238;5.686;2022-10-04T22:46:18;15.70;99.90
56512;DHT22;42408;53.238;5.686;2022-10-04T22:48:44;15.70;99.90
56512;DHT22;42408;53.238;5.686;2022-10-04T22:51:10;15.80;99.90
56512;DHT22;42408;53.238;5.686;2022-10-04T22:53:43;15.70;99.90
56512;DHT22;42408;53.238;5.686;2022-10-04T22:56:11;15.70;99.90
56512;DHT22;42408;53.238;5.686;2022-10-04T22:58:38;15.70;99.90
56512;DHT22;42408;53.238;5.686;2022-10-04T23:01:14;15.80;99.90
56512;DHT22;42408;53.238;5.686;2022-10-04T23:03:44;15.80;99.90
56512;DHT22;42408;53.238;5.686;2022-10-04T23:06:10;15.80;99.90
56512;DHT22;42408;53.238;5.686;2022-10-04T23:08:40;15.90;99.90
56512;DHT22;42408;53.238;5.686;2022-10-04T23:11:06;15.90;99.90
56512;DHT22;42408;53.238;5.686;2022-10-04T23:13:32;15.90;99.90
56512;DHT22;42408;53.238;5.686;2022-10-04T23:16:00;15.90;99.90
56512;DHT22;42408;53.238;5.686;2022-10-04T23:18:32;15.90;99.90
56512;DHT22;42408;53.238;5.686;2022-10-04T23:20:58;15.80;99.90
56512;DHT22;42408;53.238;5.686;2022-10-04T23:23:27;15.90;99.90
56512;DHT22;42408;53.238;5.686;2022-10-04T23:25:54;15.80;99.90
56512;DHT22;42408;53.238;5.686;2022-10-04T23:28:20;15.90;99.90
56512;DHT22;42408;53.238;5.686;2022-10-04T23:31:22;15.80;99.90
56512;DHT22;42408;53.238;5.686;2022-10-04T23:33:49;15.80;99.90
56512;DHT22;42408;53.238;5.686;2022-10-04T23:36:15;15.90;99.90
56512;DHT22;42408;53.238;5.686;2022-10-04T23:38:48;15.80;99.90
56512;DHT22;42408;53.238;5.686;2022-10-04T23:41:14;15.80;99.90
56512;DHT22;42408;53.238;5.686;2022-10-04T23:43:40;15.80;99.90
56512;DHT22;42408;53.238;5.686;2022-10-04T23:46:15;15.80;99.90
56512;DHT22;42408;53.238;5.686;2022-10-04T23:48:41;15.80;99.90
56512;DHT22;42408;53.238;5.686;2022-10-04T23:51:11;15.80;99.90
56512;DHT22;42408;53.238;5.686;2022-10-04T23:53:39;15.70;99.90
56512;DHT22;42408;53.238;5.686;2022-10-04T23:56:16;15.70;99.90
56512;DHT22;42408;53.238;5.686;2022-10-04T23:58:43;15.60;99.90
